sensor_id;sensor_type;location;lat;lon;timestamp;P1;durP1;ratioP1;P2;durP2;ratioP2
12869;SDS011;6503;48.572;13.460;2023-04-15T11:11:17;0.20;;;0.20;;
12869;SDS011;6503;48.572;13.460;2023-04-15T11:13:46;0.20;;;0.20;;
12869;SDS011;6503;48.572;13.460;2023-04-15T11:16:14;0.20;;;0.20;;
12869;SDS011;6503;48.572;13.460;2023-04-15T11:18:42;0.10;;;0.10;;
12869;SDS011;6503;48.572;13.460;2023-04-15T11:21:19;0.20;;;0.20;;
12869;SDS011;6503;48.572;13.460;2023-04-15T11:23:51;0.30;;;0.30;;
12869;SDS011;6503;48.572;13.460;2023-04-15T11:26:24;0.73;;;0.73;;
12869;SDS011;6503;48.572;13.460;2023-04-15T11:28:52;0.10;;;0.10;;
12869;SDS011;6503;48.572;13.460;2023-04-15T11:31:23;0.13;;;0.13;;
12869;SDS011;6503;48.572;13.460;2023-04-15T11:33:53;0.20;;;0.20;;
12869;SDS011;6503;48.572;13.460;2023-04-15T11:36:23;0.10;;;0.10;;
12869;SDS011;6503;48.572;13.460;2023-04-15T11:38:52;0.13;;;0.13;;
12869;SDS011;6503;48.572;13.460;2023-04-15T11:41:22;0.20;;;0.20;;
12869;SDS011;6503;48.572;13.460;2023-04-15T11:43:56;0.13;;;0.13;;
12869;SDS011;6503;48.572;13.460;2023-04-15T11:46:28;0.20;;;0.20;;
12869;SDS011;6503;48.572;13.460;2023-04-15T11:48:57;0.20;;;0.20;;
12869;SDS011;6503;48.572;13.460;2023-04-15T11:51:32;0.20;;;0.20;;
12869;SDS011;6503;48.572;13.460;2023-04-15T11:54:09;1.75;;;1.65;;
12869;SDS011;6503;48.572;13.460;2023-04-15T11:56:50;0.20;;;0.20;;
12869;SDS011;6503;48.572;13.460;2023-04-15T11:59:19;0.20;;;0.20;;
12869;SDS011;6503;48.572;13.460;2023-04-15T12:01:47;0.20;;;0.20;;
12869;SDS011;6503;48.572;13.460;2023-04-15T12:04:16;0.20;;;0.20;;
12869;SDS011;6503;48.572;13.460;2023-04-15T12:06:50;0.10;;;0.10;;
12869;SDS011;6503;48.572;13.460;2023-04-15T12:09:19;0.10;;;0.10;;
12869;SDS011;6503;48.572;13.460;2023-04-15T12:11:48;0.10;;;0.10;;
12869;SDS011;6503;48.572;13.460;2023-04-15T12:14:18;0.82;;;0.82;;
12869;SDS011;6503;48.572;13.460;2023-04-15T12:16:49;0.65;;;0.65;;
12869;SDS011;6503;48.572;13.460;2023-04-15T12:19:23;0.20;;;0.20;;
12869;SDS011;6503;48.572;13.460;2023-04-15T12:21:56;0.25;;;0.25;;
12869;SDS011;6503;48.572;13.460;2023-04-15T12:24:30;0.43;;;0.43;;
12869;SDS011;6503;48.572;13.460;2023-04-15T12:27:00;0.15;;;0.15;;
12869;SDS011;6503;48.572;13.460;2023-04-15T12:29:32;0.10;;;0.10;;
12869;SDS011;6503;48.572;13.460;2023-04-15T12:32:05;0.20;;;0.20;;
12869;SDS011;6503;48.572;13.460;2023-04-15T12:34:33;0.20;;;0.20;;
12869;SDS011;6503;48.572;13.460;2023-04-15T12:37:02;0.30;;;0.30;;
12869;SDS011;6503;48.572;13.460;2023-04-15T12:39:31;0.10;;;0.10;;
12869;SDS011;6503;48.572;13.460;2023-04-15T12:44:28;0.15;;;0.15;;
12869;SDS011;6503;48.572;13.460;2023-04-15T12:46:57;0.20;;;0.20;;
12869;SDS011;6503;48.572;13.460;2023-04-15T12:49:25;0.13;;;0.13;;
12869;SDS011;6503;48.572;13.460;2023-04-15T12:51:56;0.60;;;0.60;;
12869;SDS011;6503;48.572;13.460;2023-04-15T12:54:24;0.20;;;0.20;;
12869;SDS011;6503;48.572;13.460;2023-04-15T12:56:54;0.17;;;0.17;;
12869;SDS011;6503;48.572;13.460;2023-04-15T12:59:22;0.10;;;0.10;;
12869;SDS011;6503;48.572;13.460;2023-04-15T13:01:50;0.22;;;0.22;;
12869;SDS011;6503;48.572;13.460;2023-04-15T13:04:21;0.30;;;0.30;;
12869;SDS011;6503;48.572;13.460;2023-04-15T13:06:54;0.25;;;0.25;;
12869;SDS011;6503;48.572;13.460;2023-04-15T13:09:22;0.20;;;0.20;;
12869;SDS011;6503;48.572;13.460;2023-04-15T13:11:52;0.20;;;0.20;;
12869;SDS011;6503;48.572;13.460;2023-04-15T13:14:20;0.22;;;0.22;;
12869;SDS011;6503;48.572;13.460;2023-04-15T13:16:49;0.20;;;0.20;;
12869;SDS011;6503;48.572;13.460;2023-04-15T13:19:16;0.20;;;0.20;;
12869;SDS011;6503;48.572;13.460;2023-04-15T13:21:46;0.22;;;0.22;;
12869;SDS011;6503;48.572;13.460;2023-04-15T13:24:13;0.20;;;0.20;;
12869;SDS011;6503;48.572;13.460;2023-04-15T13:26:41;0.65;;;0.65;;
12869;SDS011;6503;48.572;13.460;2023-04-15T13:29:11;0.17;;;0.17;;
12869;SDS011;6503;48.572;13.460;2023-04-15T13:31:42;0.10;;;0.10;;
12869;SDS011;6503;48.572;13.460;2023-04-15T13:34:20;0.10;;;0.10;;
12869;SDS011;6503;48.572;13.460;2023-04-15T13:36:49;0.17;;;0.17;;
12869;SDS011;6503;48.572;13.460;2023-04-15T13:39:17;0.70;;;0.70;;
12869;SDS011;6503;48.572;13.460;2023-04-15T13:41:48;0.20;;;0.20;;
12869;SDS011;6503;48.572;13.460;2023-04-15T13:44:16;0.20;;;0.20;;
12869;SDS011;6503;48.572;13.460;2023-04-15T13:46:45;0.85;;;0.80;;
12869;SDS011;6503;48.572;13.460;2023-04-15T13:49:13;0.20;;;0.20;;
12869;SDS011;6503;48.572;13.460;2023-04-15T13:51:40;0.10;;;0.10;;
12869;SDS011;6503;48.572;13.460;2023-04-15T13:54:10;1.80;;;1.75;;
12869;SDS011;6503;48.572;13.460;2023-04-15T13:56:38;0.10;;;0.10;;
12869;SDS011;6503;48.572;13.460;2023-04-15T13:59:05;0.20;;;0.20;;
12869;SDS011;6503;48.572;13.460;2023-04-15T14:01:34;0.22;;;0.22;;
12869;SDS011;6503;48.572;13.460;2023-04-15T14:04:05;0.20;;;0.20;;
12869;SDS011;6503;48.572;13.460;2023-04-15T14:06:35;0.20;;;0.20;;
12869;SDS011;6503;48.572;13.460;2023-04-15T14:09:04;3.63;;;1.45;;
12869;SDS011;6503;48.572;13.460;2023-04-15T14:14:28;0.20;;;0.20;;
12869;SDS011;6503;48.572;13.460;2023-04-15T14:17:00;0.52;;;0.52;;
12869;SDS011;6503;48.572;13.460;2023-04-15T14:19:29;0.15;;;0.15;;
12869;SDS011;6503;48.572;13.460;2023-04-15T14:21:58;0.17;;;0.17;;
12869;SDS011;6503;48.572;13.460;2023-04-15T14:24:26;0.20;;;0.20;;
12869;SDS011;6503;48.572;13.460;2023-04-15T14:26:53;0.30;;;0.30;;
12869;SDS011;6503;48.572;13.460;2023-04-15T14:29:25;0.20;;;0.20;;
12869;SDS011;6503;48.572;13.460;2023-04-15T14:31:56;0.10;;;0.10;;
12869;SDS011;6503;48.572;13.460;2023-04-15T14:34:24;0.13;;;0.13;;
12869;SDS011;6503;48.572;13.460;2023-04-15T14:36:52;0.40;;;0.40;;
12869;SDS011;6503;48.572;13.460;2023-04-15T14:41:51;0.20;;;0.20;;
12869;SDS011;6503;48.572;13.460;2023-04-15T14:44:20;0.10;;;0.10;;
12869;SDS011;6503;48.572;13.460;2023-04-15T14:46:49;0.32;;;0.32;;
12869;SDS011;6503;48.572;13.460;2023-04-15T14:49:20;0.30;;;0.30;;
12869;SDS011;6503;48.572;13.460;2023-04-15T14:51:48;0.10;;;0.10;;
12869;SDS011;6503;48.572;13.460;2023-04-15T14:54:29;0.30;;;0.30;;
12869;SDS011;6503;48.572;13.460;2023-04-15T14:57:03;0.10;;;0.10;;
12869;SDS011;6503;48.572;13.460;2023-04-15T14:59:32;0.20;;;0.20;;
12869;SDS011;6503;48.572;13.460;2023-04-15T15:02:05;0.25;;;0.25;;
12869;SDS011;6503;48.572;13.460;2023-04-15T15:04:35;0.95;;;0.95;;
12869;SDS011;6503;48.572;13.460;2023-04-15T15:07:12;0.20;;;0.20;;
12869;SDS011;6503;48.572;13.460;2023-04-15T15:09:50;0.40;;;0.40;;
12869;SDS011;6503;48.572;13.460;2023-04-15T15:12:20;0.10;;;0.10;;
12869;SDS011;6503;48.572;13.460;2023-04-15T15:14:50;0.10;;;0.10;;
12869;SDS011;6503;48.572;13.460;2023-04-15T15:17:20;0.80;;;0.35;;
12869;SDS011;6503;48.572;13.460;2023-04-15T15:19:52;0.20;;;0.20;;
12869;SDS011;6503;48.572;13.460;2023-04-15T15:22:22;0.20;;;0.20;;
12869;SDS011;6503;48.572;13.460;2023-04-15T15:24:51;0.85;;;0.47;;
12869;SDS011;6503;48.572;13.460;2023-04-15T15:27:19;0.68;;;0.68;;
12869;SDS011;6503;48.572;13.460;2023-04-15T15:29:48;0.30;;;0.30;;
12869;SDS011;6503;48.572;13.460;2023-04-15T15:32:17;0.20;;;0.20;;
12869;SDS011;6503;48.572;13.460;2023-04-15T15:34:44;0.10;;;0.10;;
12869;SDS011;6503;48.572;13.460;2023-04-15T15:37:17;1.65;;;1.65;;
12869;SDS011;6503;48.572;13.460;2023-04-15T15:39:47;1.40;;;0.68;;
12869;SDS011;6503;48.572;13.460;2023-04-15T15:42:21;0.30;;;0.30;;
12869;SDS011;6503;48.572;13.460;2023-04-15T15:44:52;0.25;;;0.25;;
12869;SDS011;6503;48.572;13.460;2023-04-15T15:47:21;0.20;;;0.20;;
12869;SDS011;6503;48.572;13.460;2023-04-15T15:49:52;0.32;;;0.32;;
12869;SDS011;6503;48.572;13.460;2023-04-15T15:52:22;0.20;;;0.20;;
12869;SDS011;6503;48.572;13.460;2023-04-15T15:55:00;2.45;;;0.63;;
12869;SDS011;6503;48.572;13.460;2023-04-15T15:57:28;0.20;;;0.20;;
12869;SDS011;6503;48.572;13.460;2023-04-15T16:00:10;0.20;;;0.20;;
12869;SDS011;6503;48.572;13.460;2023-04-15T16:02:42;0.30;;;0.30;;
12869;SDS011;6503;48.572;13.460;2023-04-15T16:05:10;0.10;;;0.10;;
12869;SDS011;6503;48.572;13.460;2023-04-15T16:07:40;2.20;;;1.27;;
12869;SDS011;6503;48.572;13.460;2023-04-15T16:10:09;0.38;;;0.38;;
12869;SDS011;6503;48.572;13.460;2023-04-15T16:12:38;0.20;;;0.20;;
12869;SDS011;6503;48.572;13.460;2023-04-15T16:15:10;0.20;;;0.20;;
12869;SDS011;6503;48.572;13.460;2023-04-15T16:17:38;0.20;;;0.20;;
12869;SDS011;6503;48.572;13.460;2023-04-15T16:20:10;0.22;;;0.17;;
12869;SDS011;6503;48.572;13.460;2023-04-15T16:22:39;0.57;;;0.57;;
12869;SDS011;6503;48.572;13.460;2023-04-15T16:25:08;0.20;;;0.20;;
12869;SDS011;6503;48.572;13.460;2023-04-15T16:27:36;0.20;;;0.20;;
12869;SDS011;6503;48.572;13.460;2023-04-15T16:30:05;0.10;;;0.10;;
12869;SDS011;6503;48.572;13.460;2023-04-15T16:32:32;0.20;;;0.20;;
12869;SDS011;6503;48.572;13.460;2023-04-15T16:35:02;0.10;;;0.10;;
12869;SDS011;6503;48.572;13.460;2023-04-15T16:37:30;0.15;;;0.15;;
12869;SDS011;6503;48.572;13.460;2023-04-15T16:40:06;0.30;;;0.30;;
12869;SDS011;6503;48.572;13.460;2023-04-15T16:42:36;0.20;;;0.20;;
12869;SDS011;6503;48.572;13.460;2023-04-15T16:45:05;0.20;;;0.20;;
12869;SDS011;6503;48.572;13.460;2023-04-15T16:47:35;0.28;;;0.28;;
12869;SDS011;6503;48.572;13.460;2023-04-15T16:50:03;0.10;;;0.10;;
12869;SDS011;6503;48.572;13.460;2023-04-15T16:52:32;0.15;;;0.15;;
12869;SDS011;6503;48.572;13.460;2023-04-15T16:55:00;0.27;;;0.27;;
12869;SDS011;6503;48.572;13.460;2023-04-15T16:57:30;0.20;;;0.20;;
12869;SDS011;6503;48.572;13.460;2023-04-15T16:59:58;0.10;;;0.10;;
12869;SDS011;6503;48.572;13.460;2023-04-15T17:02:26;0.32;;;0.32;;
12869;SDS011;6503;48.572;13.460;2023-04-15T17:04:56;0.20;;;0.20;;
12869;SDS011;6503;48.572;13.460;2023-04-15T17:07:24;0.13;;;0.13;;
12869;SDS011;6503;48.572;13.460;2023-04-15T17:09:56;0.30;;;0.30;;
12869;SDS011;6503;48.572;13.460;2023-04-15T17:12:24;0.30;;;0.30;;
12869;SDS011;6503;48.572;13.460;2023-04-15T17:14:53;0.17;;;0.17;;
12869;SDS011;6503;48.572;13.460;2023-04-15T17:17:23;0.30;;;0.30;;
12869;SDS011;6503;48.572;13.460;2023-04-15T17:19:51;0.20;;;0.20;;
12869;SDS011;6503;48.572;13.460;2023-04-15T17:22:18;0.75;;;0.75;;
12869;SDS011;6503;48.572;13.460;2023-04-15T17:24:48;0.40;;;0.40;;
12869;SDS011;6503;48.572;13.460;2023-04-15T17:29:43;0.10;;;0.10;;
12869;SDS011;6503;48.572;13.460;2023-04-15T17:32:20;1.35;;;1.25;;
12869;SDS011;6503;48.572;13.460;2023-04-15T17:34:48;0.70;;;0.50;;
12869;SDS011;6503;48.572;13.460;2023-04-15T17:37:18;0.20;;;0.20;;
12869;SDS011;6503;48.572;13.460;2023-04-15T17:40:00;0.30;;;0.30;;
12869;SDS011;6503;48.572;13.460;2023-04-15T17:42:31;1.00;;;1.00;;
12869;SDS011;6503;48.572;13.460;2023-04-15T17:45:03;0.43;;;0.43;;
12869;SDS011;6503;48.572;13.460;2023-04-15T17:47:32;0.47;;;0.47;;
12869;SDS011;6503;48.572;13.460;2023-04-15T17:49:59;1.70;;;0.30;;
12869;SDS011;6503;48.572;13.460;2023-04-15T17:52:27;0.20;;;0.20;;
12869;SDS011;6503;48.572;13.460;2023-04-15T17:54:55;1.05;;;1.05;;
12869;SDS011;6503;48.572;13.460;2023-04-15T17:57:24;0.40;;;0.40;;
12869;SDS011;6503;48.572;13.460;2023-04-15T17:59:52;0.20;;;0.20;;
12869;SDS011;6503;48.572;13.460;2023-04-15T18:02:21;0.65;;;0.65;;
12869;SDS011;6503;48.572;13.460;2023-04-15T18:04:51;0.45;;;0.32;;
12869;SDS011;6503;48.572;13.460;2023-04-15T18:07:22;5.97;;;3.60;;
12869;SDS011;6503;48.572;13.460;2023-04-15T18:09:50;5.22;;;3.55;;
12869;SDS011;6503;48.572;13.460;2023-04-15T18:14:47;6.70;;;4.15;;
12869;SDS011;6503;48.572;13.460;2023-04-15T18:17:15;6.22;;;3.58;;
12869;SDS011;6503;48.572;13.460;2023-04-15T18:19:44;8.18;;;3.78;;
12869;SDS011;6503;48.572;13.460;2023-04-15T18:22:14;7.22;;;3.97;;
12869;SDS011;6503;48.572;13.460;2023-04-15T18:24:42;5.78;;;3.25;;
12869;SDS011;6503;48.572;13.460;2023-04-15T18:27:09;6.00;;;4.10;;
12869;SDS011;6503;48.572;13.460;2023-04-15T18:29:37;4.70;;;3.67;;
12869;SDS011;6503;48.572;13.460;2023-04-15T18:32:07;7.25;;;4.45;;
12869;SDS011;6503;48.572;13.460;2023-04-15T18:34:35;7.90;;;4.50;;
12869;SDS011;6503;48.572;13.460;2023-04-15T18:37:03;7.85;;;4.70;;
12869;SDS011;6503;48.572;13.460;2023-04-15T18:39:33;7.18;;;4.28;;
12869;SDS011;6503;48.572;13.460;2023-04-15T18:42:00;5.55;;;3.75;;
12869;SDS011;6503;48.572;13.460;2023-04-15T18:44:28;7.65;;;4.07;;
12869;SDS011;6503;48.572;13.460;2023-04-15T18:46:56;9.88;;;5.28;;
12869;SDS011;6503;48.572;13.460;2023-04-15T18:49:25;6.40;;;3.83;;
12869;SDS011;6503;48.572;13.460;2023-04-15T18:51:54;9.15;;;5.13;;
12869;SDS011;6503;48.572;13.460;2023-04-15T18:54:21;7.90;;;4.85;;
12869;SDS011;6503;48.572;13.460;2023-04-15T18:56:52;7.93;;;5.13;;
12869;SDS011;6503;48.572;13.460;2023-04-15T18:59:22;7.38;;;5.13;;
12869;SDS011;6503;48.572;13.460;2023-04-15T19:01:54;6.88;;;4.50;;
12869;SDS011;6503;48.572;13.460;2023-04-15T19:04:22;8.35;;;5.63;;
12869;SDS011;6503;48.572;13.460;2023-04-15T19:06:53;8.05;;;5.47;;
12869;SDS011;6503;48.572;13.460;2023-04-15T19:09:21;7.68;;;5.43;;
12869;SDS011;6503;48.572;13.460;2023-04-15T19:11:53;9.40;;;6.10;;
12869;SDS011;6503;48.572;13.460;2023-04-15T19:14:23;10.20;;;6.30;;
12869;SDS011;6503;48.572;13.460;2023-04-15T19:16:51;9.70;;;5.93;;
12869;SDS011;6503;48.572;13.460;2023-04-15T19:19:20;9.68;;;6.72;;
12869;SDS011;6503;48.572;13.460;2023-04-15T19:21:49;11.15;;;7.40;;
12869;SDS011;6503;48.572;13.460;2023-04-15T19:24:18;10.23;;;6.75;;
12869;SDS011;6503;48.572;13.460;2023-04-15T19:26:47;10.48;;;6.20;;
12869;SDS011;6503;48.572;13.460;2023-04-15T19:29:16;11.75;;;6.68;;
12869;SDS011;6503;48.572;13.460;2023-04-15T19:31:46;11.73;;;6.88;;
12869;SDS011;6503;48.572;13.460;2023-04-15T19:34:13;9.45;;;6.57;;
12869;SDS011;6503;48.572;13.460;2023-04-15T19:36:42;9.90;;;7.70;;
12869;SDS011;6503;48.572;13.460;2023-04-15T19:39:12;11.75;;;7.65;;
12869;SDS011;6503;48.572;13.460;2023-04-15T19:41:42;12.32;;;7.82;;
12869;SDS011;6503;48.572;13.460;2023-04-15T19:44:09;9.43;;;7.32;;
12869;SDS011;6503;48.572;13.460;2023-04-15T19:46:40;10.73;;;7.28;;
12869;SDS011;6503;48.572;13.460;2023-04-15T19:49:08;10.20;;;7.28;;
12869;SDS011;6503;48.572;13.460;2023-04-15T19:51:36;10.38;;;7.10;;
12869;SDS011;6503;48.572;13.460;2023-04-15T19:54:04;11.27;;;7.82;;
12869;SDS011;6503;48.572;13.460;2023-04-15T19:56:32;10.18;;;7.85;;
12869;SDS011;6503;48.572;13.460;2023-04-15T19:59:00;11.20;;;8.07;;
12869;SDS011;6503;48.572;13.460;2023-04-15T20:01:32;12.27;;;8.23;;
12869;SDS011;6503;48.572;13.460;2023-04-15T20:04:02;10.73;;;7.90;;
12869;SDS011;6503;48.572;13.460;2023-04-15T20:06:30;11.50;;;7.95;;
12869;SDS011;6503;48.572;13.460;2023-04-15T20:08:58;11.32;;;7.82;;
12869;SDS011;6503;48.572;13.460;2023-04-15T20:11:26;11.45;;;8.43;;
12869;SDS011;6503;48.572;13.460;2023-04-15T20:13:54;13.30;;;8.40;;
12869;SDS011;6503;48.572;13.460;2023-04-15T20:16:22;12.55;;;8.30;;
12869;SDS011;6503;48.572;13.460;2023-04-15T20:18:50;13.18;;;8.10;;
12869;SDS011;6503;48.572;13.460;2023-04-15T20:21:22;11.02;;;8.27;;
12869;SDS011;6503;48.572;13.460;2023-04-15T20:23:49;10.38;;;7.47;;
12869;SDS011;6503;48.572;13.460;2023-04-15T20:26:18;11.30;;;7.65;;
12869;SDS011;6503;48.572;13.460;2023-04-15T20:28:50;9.23;;;7.55;;
12869;SDS011;6503;48.572;13.460;2023-04-15T20:31:17;10.23;;;7.65;;
12869;SDS011;6503;48.572;13.460;2023-04-15T20:33:45;9.30;;;7.70;;
12869;SDS011;6503;48.572;13.460;2023-04-15T20:36:13;10.73;;;8.30;;
12869;SDS011;6503;48.572;13.460;2023-04-15T20:38:42;10.95;;;8.00;;
12869;SDS011;6503;48.572;13.460;2023-04-15T20:41:10;9.75;;;7.78;;
12869;SDS011;6503;48.572;13.460;2023-04-15T20:43:37;11.57;;;7.95;;
12869;SDS011;6503;48.572;13.460;2023-04-15T20:46:05;11.40;;;8.10;;
12869;SDS011;6503;48.572;13.460;2023-04-15T20:48:34;15.48;;;8.70;;
12869;SDS011;6503;48.572;13.460;2023-04-15T20:51:02;13.02;;;9.35;;
12869;SDS011;6503;48.572;13.460;2023-04-15T20:53:29;13.75;;;8.73;;
12869;SDS011;6503;48.572;13.460;2023-04-15T20:55:58;11.73;;;8.43;;
12869;SDS011;6503;48.572;13.460;2023-04-15T20:58:26;11.10;;;7.85;;
12869;SDS011;6503;48.572;13.460;2023-04-15T21:00:54;15.15;;;9.18;;
12869;SDS011;6503;48.572;13.460;2023-04-15T21:03:22;10.10;;;7.88;;
12869;SDS011;6503;48.572;13.460;2023-04-15T21:05:51;12.82;;;8.75;;
12869;SDS011;6503;48.572;13.460;2023-04-15T21:08:18;13.25;;;8.98;;
12869;SDS011;6503;48.572;13.460;2023-04-15T21:10:53;12.38;;;9.40;;
12869;SDS011;6503;48.572;13.460;2023-04-15T21:13:22;12.40;;;8.57;;
12869;SDS011;6503;48.572;13.460;2023-04-15T21:15:50;11.40;;;8.68;;
12869;SDS011;6503;48.572;13.460;2023-04-15T21:18:19;15.02;;;9.57;;
12869;SDS011;6503;48.572;13.460;2023-04-15T21:20:54;12.75;;;8.55;;
12869;SDS011;6503;48.572;13.460;2023-04-15T21:23:21;11.10;;;8.52;;
12869;SDS011;6503;48.572;13.460;2023-04-15T21:25:49;14.10;;;9.20;;
12869;SDS011;6503;48.572;13.460;2023-04-15T21:28:16;11.88;;;8.38;;
12869;SDS011;6503;48.572;13.460;2023-04-15T21:30:46;11.45;;;9.27;;
12869;SDS011;6503;48.572;13.460;2023-04-15T21:33:27;12.38;;;8.90;;
12869;SDS011;6503;48.572;13.460;2023-04-15T21:35:54;14.63;;;8.63;;
12869;SDS011;6503;48.572;13.460;2023-04-15T21:38:22;13.73;;;9.55;;
12869;SDS011;6503;48.572;13.460;2023-04-15T21:40:52;13.60;;;8.88;;
12869;SDS011;6503;48.572;13.460;2023-04-15T21:43:20;12.65;;;9.05;;
12869;SDS011;6503;48.572;13.460;2023-04-15T21:45:55;14.07;;;9.32;;
12869;SDS011;6503;48.572;13.460;2023-04-15T21:48:22;13.65;;;9.20;;
12869;SDS011;6503;48.572;13.460;2023-04-15T21:50:50;12.02;;;9.10;;
12869;SDS011;6503;48.572;13.460;2023-04-15T21:53:18;14.25;;;10.32;;
12869;SDS011;6503;48.572;13.460;2023-04-15T21:55:46;13.98;;;10.00;;
12869;SDS011;6503;48.572;13.460;2023-04-15T21:58:14;15.25;;;10.40;;
12869;SDS011;6503;48.572;13.460;2023-04-15T22:00:42;13.68;;;10.30;;
12869;SDS011;6503;48.572;13.460;2023-04-15T22:03:13;13.65;;;10.02;;
12869;SDS011;6503;48.572;13.460;2023-04-15T22:05:43;14.23;;;10.90;;
12869;SDS011;6503;48.572;13.460;2023-04-15T22:10:38;11.73;;;9.05;;
12869;SDS011;6503;48.572;13.460;2023-04-15T22:13:06;12.38;;;9.02;;
12869;SDS011;6503;48.572;13.460;2023-04-15T22:15:35;13.23;;;9.67;;
12869;SDS011;6503;48.572;13.460;2023-04-15T22:18:03;14.95;;;10.38;;
12869;SDS011;6503;48.572;13.460;2023-04-15T22:20:33;13.45;;;9.90;;
12869;SDS011;6503;48.572;13.460;2023-04-15T22:23:01;14.02;;;9.98;;
12869;SDS011;6503;48.572;13.460;2023-04-15T22:25:32;32.90;;;10.48;;
12869;SDS011;6503;48.572;13.460;2023-04-15T22:28:01;14.60;;;10.07;;
12869;SDS011;6503;48.572;13.460;2023-04-15T22:30:30;14.15;;;10.77;;
12869;SDS011;6503;48.572;13.460;2023-04-15T22:32:58;14.52;;;10.02;;
12869;SDS011;6503;48.572;13.460;2023-04-15T22:35:27;15.10;;;10.97;;
12869;SDS011;6503;48.572;13.460;2023-04-15T22:37:56;15.90;;;11.13;;
12869;SDS011;6503;48.572;13.460;2023-04-15T22:40:24;16.95;;;11.63;;
12869;SDS011;6503;48.572;13.460;2023-04-15T22:42:51;15.45;;;10.55;;
12869;SDS011;6503;48.572;13.460;2023-04-15T22:45:19;15.50;;;11.35;;
12869;SDS011;6503;48.572;13.460;2023-04-15T22:47:47;16.52;;;11.52;;
12869;SDS011;6503;48.572;13.460;2023-04-15T22:50:14;14.25;;;10.60;;
12869;SDS011;6503;48.572;13.460;2023-04-15T22:52:42;15.63;;;11.02;;
12869;SDS011;6503;48.572;13.460;2023-04-15T22:55:14;15.70;;;11.38;;
12869;SDS011;6503;48.572;13.460;2023-04-15T22:57:42;16.25;;;10.95;;
12869;SDS011;6503;48.572;13.460;2023-04-15T23:00:10;14.27;;;10.73;;
12869;SDS011;6503;48.572;13.460;2023-04-15T23:02:37;15.95;;;11.25;;
12869;SDS011;6503;48.572;13.460;2023-04-15T23:05:05;16.90;;;11.05;;
12869;SDS011;6503;48.572;13.460;2023-04-15T23:07:32;17.02;;;11.63;;
12869;SDS011;6503;48.572;13.460;2023-04-15T23:10:00;16.63;;;11.40;;
12869;SDS011;6503;48.572;13.460;2023-04-15T23:12:30;16.80;;;11.40;;
12869;SDS011;6503;48.572;13.460;2023-04-15T23:14:57;13.18;;;10.32;;
12869;SDS011;6503;48.572;13.460;2023-04-15T23:17:24;13.23;;;10.57;;
12869;SDS011;6503;48.572;13.460;2023-04-15T23:19:52;14.27;;;10.77;;
12869;SDS011;6503;48.572;13.460;2023-04-15T23:22:19;15.05;;;10.23;;
12869;SDS011;6503;48.572;13.460;2023-04-15T23:24:47;15.25;;;11.63;;
12869;SDS011;6503;48.572;13.460;2023-04-15T23:27:14;14.45;;;10.63;;
12869;SDS011;6503;48.572;13.460;2023-04-15T23:29:44;16.30;;;10.73;;
12869;SDS011;6503;48.572;13.460;2023-04-15T23:32:12;14.90;;;10.38;;
12869;SDS011;6503;48.572;13.460;2023-04-15T23:34:40;13.57;;;10.30;;
12869;SDS011;6503;48.572;13.460;2023-04-15T23:37:09;14.52;;;10.65;;
12869;SDS011;6503;48.572;13.460;2023-04-15T23:39:36;17.40;;;11.70;;
12869;SDS011;6503;48.572;13.460;2023-04-15T23:42:04;16.65;;;12.10;;
12869;SDS011;6503;48.572;13.460;2023-04-15T23:44:31;18.15;;;12.85;;
12869;SDS011;6503;48.572;13.460;2023-04-15T23:47:00;17.13;;;12.13;;
12869;SDS011;6503;48.572;13.460;2023-04-15T23:49:28;16.05;;;12.10;;
12869;SDS011;6503;48.572;13.460;2023-04-15T23:51:55;17.58;;;11.68;;
12869;SDS011;6503;48.572;13.460;2023-04-15T23:54:23;17.63;;;12.75;;
12869;SDS011;6503;48.572;13.460;2023-04-15T23:56:50;15.95;;;12.00;;
12869;SDS011;6503;48.572;13.460;2023-04-15T23:59:17;17.15;;;12.30;;
